sensor_id;sensor_type;location;lat;lon;timestamp;P1;P2;P0
63662;PMS5003;49815;51.618;0.336;2022-08-01T00:02:10;3;3;
63662;PMS5003;49815;51.618;0.336;2022-08-01T00:04:35;2;2;
63662;PMS5003;49815;51.618;0.336;2022-08-01T00:07:01;1;1;
63662;PMS5003;49815;51.618;0.336;2022-08-01T00:09:26;3;3;
63662;PMS5003;49815;51.618;0.336;2022-08-01T00:11:51;2;2;
63662;PMS5003;49815;51.618;0.336;2022-08-01T00:14:16;3;3;
63662;PMS5003;49815;51.618;0.336;2022-08-01T00:16:42;5;5;
63662;PMS5003;49815;51.618;0.336;2022-08-01T00:19:07;2;2;
63662;PMS5003;49815;51.618;0.336;2022-08-01T00:21:32;3;3;
63662;PMS5003;49815;51.618;0.336;2022-08-01T00:23:57;4;2;
63662;PMS5003;49815;51.618;0.336;2022-08-01T00:26:22;3;3;
63662;PMS5003;49815;51.618;0.336;2022-08-01T00:28:48;5;4;
63662;PMS5003;49815;51.618;0.336;2022-08-01T00:31:13;1;1;
63662;PMS5003;49815;51.618;0.336;2022-08-01T00:33:38;2;2;
63662;PMS5003;49815;51.618;0.336;2022-08-01T00:36:03;2;2;
63662;PMS5003;49815;51.618;0.336;2022-08-01T00:38:29;3;1;
63662;PMS5003;49815;51.618;0.336;2022-08-01T00:40:54;2;1;
63662;PMS5003;49815;51.618;0.336;2022-08-01T00:43:19;1;1;
63662;PMS5003;49815;51.618;0.336;2022-08-01T00:45:45;3;3;
63662;PMS5003;49815;51.618;0.336;2022-08-01T00:48:10;3;2;
63662;PMS5003;49815;51.618;0.336;2022-08-01T00:50:35;2;2;
63662;PMS5003;49815;51.618;0.336;2022-08-01T00:53:01;1;1;
63662;PMS5003;49815;51.618;0.336;2022-08-01T00:55:26;6;4;
63662;PMS5003;49815;51.618;0.336;2022-08-01T00:57:50;4;4;
63662;PMS5003;49815;51.618;0.336;2022-08-01T01:00:16;3;3;
63662;PMS5003;49815;51.618;0.336;2022-08-01T01:02:41;5;4;
63662;PMS5003;49815;51.618;0.336;2022-08-01T01:05:07;2;2;
63662;PMS5003;49815;51.618;0.336;2022-08-01T01:07:32;6;5;
63662;PMS5003;49815;51.618;0.336;2022-08-01T01:09:58;2;2;
63662;PMS5003;49815;51.618;0.336;2022-08-01T01:12:24;3;3;
63662;PMS5003;49815;51.618;0.336;2022-08-01T01:14:51;3;3;
63662;PMS5003;49815;51.618;0.336;2022-08-01T01:17:14;4;4;
63662;PMS5003;49815;51.618;0.336;2022-08-01T01:19:39;5;5;
63662;PMS5003;49815;51.618;0.336;2022-08-01T01:22:09;6;6;
63662;PMS5003;49815;51.618;0.336;2022-08-01T01:24:31;4;4;
63662;PMS5003;49815;51.618;0.336;2022-08-01T01:26:57;6;4;
63662;PMS5003;49815;51.618;0.336;2022-08-01T01:29:21;3;3;
63662;PMS5003;49815;51.618;0.336;2022-08-01T01:31:46;3;3;
63662;PMS5003;49815;51.618;0.336;2022-08-01T01:34:11;4;3;
63662;PMS5003;49815;51.618;0.336;2022-08-01T01:36:35;3;3;
63662;PMS5003;49815;51.618;0.336;2022-08-01T01:39:00;3;3;
63662;PMS5003;49815;51.618;0.336;2022-08-01T01:41:26;4;4;
63662;PMS5003;49815;51.618;0.336;2022-08-01T01:43:51;2;2;
63662;PMS5003;49815;51.618;0.336;2022-08-01T01:46:17;4;4;
63662;PMS5003;49815;51.618;0.336;2022-08-01T01:48:42;4;4;
63662;PMS5003;49815;51.618;0.336;2022-08-01T01:51:07;4;4;
63662;PMS5003;49815;51.618;0.336;2022-08-01T01:53:33;5;5;
63662;PMS5003;49815;51.618;0.336;2022-08-01T01:55:58;3;3;
63662;PMS5003;49815;51.618;0.336;2022-08-01T01:58:23;2;2;
63662;PMS5003;49815;51.618;0.336;2022-08-01T02:00:48;4;4;
63662;PMS5003;49815;51.618;0.336;2022-08-01T02:03:13;3;3;
63662;PMS5003;49815;51.618;0.336;2022-08-01T02:05:38;5;3;
63662;PMS5003;49815;51.618;0.336;2022-08-01T02:08:04;3;3;
63662;PMS5003;49815;51.618;0.336;2022-08-01T02:10:29;2;2;
63662;PMS5003;49815;51.618;0.336;2022-08-01T02:12:54;4;4;
63662;PMS5003;49815;51.618;0.336;2022-08-01T02:15:19;2;2;
63662;PMS5003;49815;51.618;0.336;2022-08-01T02:17:46;4;4;
63662;PMS5003;49815;51.618;0.336;2022-08-01T02:20:10;4;4;
63662;PMS5003;49815;51.618;0.336;2022-08-01T02:22:36;3;3;
63662;PMS5003;49815;51.618;0.336;2022-08-01T02:25:02;4;3;
63662;PMS5003;49815;51.618;0.336;2022-08-01T02:27:31;4;4;
63662;PMS5003;49815;51.618;0.336;2022-08-01T02:29:52;4;4;
63662;PMS5003;49815;51.618;0.336;2022-08-01T02:32:18;4;4;
63662;PMS5003;49815;51.618;0.336;2022-08-01T02:34:41;5;5;
63662;PMS5003;49815;51.618;0.336;2022-08-01T02:37:07;4;4;
63662;PMS5003;49815;51.618;0.336;2022-08-01T02:39:32;5;5;
63662;PMS5003;49815;51.618;0.336;2022-08-01T02:42:00;4;4;
63662;PMS5003;49815;51.618;0.336;2022-08-01T02:44:23;3;3;
63662;PMS5003;49815;51.618;0.336;2022-08-01T02:46:49;3;3;
63662;PMS5003;49815;51.618;0.336;2022-08-01T02:49:13;3;3;
63662;PMS5003;49815;51.618;0.336;2022-08-01T02:51:38;5;4;
63662;PMS5003;49815;51.618;0.336;2022-08-01T02:54:04;5;5;
63662;PMS5003;49815;51.618;0.336;2022-08-01T02:56:29;4;4;
63662;PMS5003;49815;51.618;0.336;2022-08-01T02:58:54;4;4;
63662;PMS5003;49815;51.618;0.336;2022-08-01T03:01:19;4;4;
63662;PMS5003;49815;51.618;0.336;2022-08-01T03:03:45;2;2;
63662;PMS5003;49815;51.618;0.336;2022-08-01T03:06:10;3;3;
63662;PMS5003;49815;51.618;0.336;2022-08-01T03:08:35;2;2;
63662;PMS5003;49815;51.618;0.336;2022-08-01T03:11:01;3;3;
63662;PMS5003;49815;51.618;0.336;2022-08-01T03:13:26;2;2;
63662;PMS5003;49815;51.618;0.336;2022-08-01T03:15:51;4;4;
63662;PMS5003;49815;51.618;0.336;2022-08-01T03:18:17;5;5;
63662;PMS5003;49815;51.618;0.336;2022-08-01T03:20:42;5;4;
63662;PMS5003;49815;51.618;0.336;2022-08-01T03:23:08;6;6;
63662;PMS5003;49815;51.618;0.336;2022-08-01T03:25:32;5;4;
63662;PMS5003;49815;51.618;0.336;2022-08-01T03:27:58;4;4;
63662;PMS5003;49815;51.618;0.336;2022-08-01T03:30:23;4;4;
63662;PMS5003;49815;51.618;0.336;2022-08-01T03:32:48;6;4;
63662;PMS5003;49815;51.618;0.336;2022-08-01T03:35:13;4;4;
63662;PMS5003;49815;51.618;0.336;2022-08-01T03:37:40;5;5;
63662;PMS5003;49815;51.618;0.336;2022-08-01T03:40:05;4;4;
63662;PMS5003;49815;51.618;0.336;2022-08-01T03:42:32;5;5;
63662;PMS5003;49815;51.618;0.336;2022-08-01T03:44:57;5;5;
63662;PMS5003;49815;51.618;0.336;2022-08-01T03:47:21;6;5;
63662;PMS5003;49815;51.618;0.336;2022-08-01T03:49:46;6;5;
63662;PMS5003;49815;51.618;0.336;2022-08-01T03:52:11;4;4;
63662;PMS5003;49815;51.618;0.336;2022-08-01T03:54:37;4;4;
63662;PMS5003;49815;51.618;0.336;2022-08-01T03:57:01;5;5;
63662;PMS5003;49815;51.618;0.336;2022-08-01T03:59:27;5;5;
63662;PMS5003;49815;51.618;0.336;2022-08-01T04:01:52;6;6;
63662;PMS5003;49815;51.618;0.336;2022-08-01T04:04:17;7;7;
63662;PMS5003;49815;51.618;0.336;2022-08-01T04:06:42;5;5;
63662;PMS5003;49815;51.618;0.336;2022-08-01T04:09:08;5;5;
63662;PMS5003;49815;51.618;0.336;2022-08-01T04:11:33;6;6;
63662;PMS5003;49815;51.618;0.336;2022-08-01T04:13:58;5;5;
63662;PMS5003;49815;51.618;0.336;2022-08-01T04:16:23;10;8;
63662;PMS5003;49815;51.618;0.336;2022-08-01T04:18:49;6;5;
63662;PMS5003;49815;51.618;0.336;2022-08-01T04:21:14;5;5;
63662;PMS5003;49815;51.618;0.336;2022-08-01T04:23:39;8;7;
63662;PMS5003;49815;51.618;0.336;2022-08-01T04:26:04;6;6;
63662;PMS5003;49815;51.618;0.336;2022-08-01T04:28:30;7;7;
63662;PMS5003;49815;51.618;0.336;2022-08-01T04:30:55;7;6;
63662;PMS5003;49815;51.618;0.336;2022-08-01T04:33:25;5;5;
63662;PMS5003;49815;51.618;0.336;2022-08-01T04:35:46;6;6;
63662;PMS5003;49815;51.618;0.336;2022-08-01T04:38:12;5;5;
63662;PMS5003;49815;51.618;0.336;2022-08-01T04:40:36;7;6;
63662;PMS5003;49815;51.618;0.336;2022-08-01T04:43:01;7;7;
63662;PMS5003;49815;51.618;0.336;2022-08-01T04:45:27;6;6;
63662;PMS5003;49815;51.618;0.336;2022-08-01T04:47:52;4;4;
63662;PMS5003;49815;51.618;0.336;2022-08-01T04:50:17;6;6;
63662;PMS5003;49815;51.618;0.336;2022-08-01T04:52:43;7;7;
63662;PMS5003;49815;51.618;0.336;2022-08-01T04:55:08;5;5;
63662;PMS5003;49815;51.618;0.336;2022-08-01T04:57:33;7;7;
63662;PMS5003;49815;51.618;0.336;2022-08-01T04:59:59;6;5;
63662;PMS5003;49815;51.618;0.336;2022-08-01T05:02:24;10;10;
63662;PMS5003;49815;51.618;0.336;2022-08-01T05:04:50;5;5;
63662;PMS5003;49815;51.618;0.336;2022-08-01T05:07:16;9;8;
63662;PMS5003;49815;51.618;0.336;2022-08-01T05:09:42;6;5;
63662;PMS5003;49815;51.618;0.336;2022-08-01T05:12:07;6;6;
63662;PMS5003;49815;51.618;0.336;2022-08-01T05:14:32;6;6;
63662;PMS5003;49815;51.618;0.336;2022-08-01T05:16:57;8;7;
63662;PMS5003;49815;51.618;0.336;2022-08-01T05:19:23;5;4;
63662;PMS5003;49815;51.618;0.336;2022-08-01T05:21:49;9;8;
63662;PMS5003;49815;51.618;0.336;2022-08-01T05:24:14;7;6;
63662;PMS5003;49815;51.618;0.336;2022-08-01T05:26:39;9;9;
63662;PMS5003;49815;51.618;0.336;2022-08-01T05:29:05;8;8;
63662;PMS5003;49815;51.618;0.336;2022-08-01T05:31:30;9;9;
63662;PMS5003;49815;51.618;0.336;2022-08-01T05:33:55;7;7;
63662;PMS5003;49815;51.618;0.336;2022-08-01T05:36:20;6;6;
63662;PMS5003;49815;51.618;0.336;2022-08-01T05:38:46;8;8;
63662;PMS5003;49815;51.618;0.336;2022-08-01T05:41:11;9;9;
63662;PMS5003;49815;51.618;0.336;2022-08-01T05:43:36;10;9;
63662;PMS5003;49815;51.618;0.336;2022-08-01T05:46:02;7;7;
63662;PMS5003;49815;51.618;0.336;2022-08-01T05:48:27;8;6;
63662;PMS5003;49815;51.618;0.336;2022-08-01T05:50:53;7;7;
63662;PMS5003;49815;51.618;0.336;2022-08-01T05:53:18;8;7;
63662;PMS5003;49815;51.618;0.336;2022-08-01T05:55:43;7;6;
63662;PMS5003;49815;51.618;0.336;2022-08-01T05:58:08;6;6;
63662;PMS5003;49815;51.618;0.336;2022-08-01T06:00:33;10;8;
63662;PMS5003;49815;51.618;0.336;2022-08-01T06:02:59;9;8;
63662;PMS5003;49815;51.618;0.336;2022-08-01T06:05:24;10;9;
63662;PMS5003;49815;51.618;0.336;2022-08-01T06:07:50;9;9;
63662;PMS5003;49815;51.618;0.336;2022-08-01T06:10:15;9;7;
63662;PMS5003;49815;51.618;0.336;2022-08-01T06:12:40;8;8;
63662;PMS5003;49815;51.618;0.336;2022-08-01T06:15:06;8;8;
63662;PMS5003;49815;51.618;0.336;2022-08-01T06:17:31;6;6;
63662;PMS5003;49815;51.618;0.336;2022-08-01T06:19:56;8;7;
63662;PMS5003;49815;51.618;0.336;2022-08-01T06:22:21;12;8;
63662;PMS5003;49815;51.618;0.336;2022-08-01T06:24:47;13;9;
63662;PMS5003;49815;51.618;0.336;2022-08-01T06:27:12;6;6;
63662;PMS5003;49815;51.618;0.336;2022-08-01T06:29:38;7;6;
63662;PMS5003;49815;51.618;0.336;2022-08-01T06:32:03;6;6;
63662;PMS5003;49815;51.618;0.336;2022-08-01T06:34:28;7;6;
63662;PMS5003;49815;51.618;0.336;2022-08-01T06:36:54;5;5;
63662;PMS5003;49815;51.618;0.336;2022-08-01T06:39:19;8;7;
63662;PMS5003;49815;51.618;0.336;2022-08-01T06:41:44;5;5;
63662;PMS5003;49815;51.618;0.336;2022-08-01T06:44:11;4;4;
63662;PMS5003;49815;51.618;0.336;2022-08-01T06:46:35;8;6;
63662;PMS5003;49815;51.618;0.336;2022-08-01T06:49:00;4;4;
63662;PMS5003;49815;51.618;0.336;2022-08-01T06:51:25;4;4;
63662;PMS5003;49815;51.618;0.336;2022-08-01T06:53:50;6;5;
63662;PMS5003;49815;51.618;0.336;2022-08-01T06:56:15;4;4;
63662;PMS5003;49815;51.618;0.336;2022-08-01T06:58:41;3;3;
63662;PMS5003;49815;51.618;0.336;2022-08-01T07:01:06;4;2;
63662;PMS5003;49815;51.618;0.336;2022-08-01T07:03:31;4;4;
63662;PMS5003;49815;51.618;0.336;2022-08-01T07:05:56;4;4;
63662;PMS5003;49815;51.618;0.336;2022-08-01T07:08:21;6;5;
63662;PMS5003;49815;51.618;0.336;2022-08-01T07:10:46;3;3;
63662;PMS5003;49815;51.618;0.336;2022-08-01T07:13:11;3;3;
63662;PMS5003;49815;51.618;0.336;2022-08-01T07:15:36;2;2;
63662;PMS5003;49815;51.618;0.336;2022-08-01T07:18:02;3;3;
63662;PMS5003;49815;51.618;0.336;2022-08-01T07:20:26;3;3;
63662;PMS5003;49815;51.618;0.336;2022-08-01T07:22:51;3;3;
63662;PMS5003;49815;51.618;0.336;2022-08-01T07:25:16;4;2;
63662;PMS5003;49815;51.618;0.336;2022-08-01T07:27:41;2;2;
63662;PMS5003;49815;51.618;0.336;2022-08-01T07:30:07;4;4;
63662;PMS5003;49815;51.618;0.336;2022-08-01T07:32:31;4;4;
63662;PMS5003;49815;51.618;0.336;2022-08-01T07:34:56;5;5;
63662;PMS5003;49815;51.618;0.336;2022-08-01T07:37:21;3;3;
63662;PMS5003;49815;51.618;0.336;2022-08-01T07:39:47;3;3;
63662;PMS5003;49815;51.618;0.336;2022-08-01T07:42:11;4;4;
63662;PMS5003;49815;51.618;0.336;2022-08-01T07:44:36;4;4;
63662;PMS5003;49815;51.618;0.336;2022-08-01T07:47:03;4;4;
63662;PMS5003;49815;51.618;0.336;2022-08-01T07:49:27;2;2;
63662;PMS5003;49815;51.618;0.336;2022-08-01T07:51:52;4;3;
63662;PMS5003;49815;51.618;0.336;2022-08-01T07:54:17;3;3;
63662;PMS5003;49815;51.618;0.336;2022-08-01T07:56:42;4;4;
63662;PMS5003;49815;51.618;0.336;2022-08-01T07:59:07;4;4;
63662;PMS5003;49815;51.618;0.336;2022-08-01T08:01:32;5;5;
63662;PMS5003;49815;51.618;0.336;2022-08-01T08:03:57;2;2;
63662;PMS5003;49815;51.618;0.336;2022-08-01T08:06:22;1;1;
63662;PMS5003;49815;51.618;0.336;2022-08-01T08:08:47;4;2;
63662;PMS5003;49815;51.618;0.336;2022-08-01T08:11:13;3;3;
63662;PMS5003;49815;51.618;0.336;2022-08-01T08:13:38;3;3;
63662;PMS5003;49815;51.618;0.336;2022-08-01T08:16:03;3;3;
63662;PMS5003;49815;51.618;0.336;2022-08-01T08:18:28;3;2;
63662;PMS5003;49815;51.618;0.336;2022-08-01T08:20:53;1;1;
63662;PMS5003;49815;51.618;0.336;2022-08-01T08:23:18;4;3;
63662;PMS5003;49815;51.618;0.336;2022-08-01T08:25:43;1;1;
63662;PMS5003;49815;51.618;0.336;2022-08-01T08:28:09;4;3;
63662;PMS5003;49815;51.618;0.336;2022-08-01T08:30:34;2;2;
63662;PMS5003;49815;51.618;0.336;2022-08-01T08:32:59;2;2;
63662;PMS5003;49815;51.618;0.336;2022-08-01T08:35:24;1;1;
63662;PMS5003;49815;51.618;0.336;2022-08-01T08:37:49;4;2;
63662;PMS5003;49815;51.618;0.336;2022-08-01T08:40:14;3;2;
63662;PMS5003;49815;51.618;0.336;2022-08-01T08:42:40;3;3;
63662;PMS5003;49815;51.618;0.336;2022-08-01T08:45:05;2;2;
63662;PMS5003;49815;51.618;0.336;2022-08-01T08:47:29;4;4;
63662;PMS5003;49815;51.618;0.336;2022-08-01T08:49:55;3;3;
63662;PMS5003;49815;51.618;0.336;2022-08-01T08:52:20;3;3;
63662;PMS5003;49815;51.618;0.336;2022-08-01T08:54:44;3;3;
63662;PMS5003;49815;51.618;0.336;2022-08-01T08:57:11;2;2;
63662;PMS5003;49815;51.618;0.336;2022-08-01T08:59:35;3;3;
63662;PMS5003;49815;51.618;0.336;2022-08-01T09:02:01;4;3;
63662;PMS5003;49815;51.618;0.336;2022-08-01T09:04:25;3;3;
63662;PMS5003;49815;51.618;0.336;2022-08-01T09:06:50;1;1;
63662;PMS5003;49815;51.618;0.336;2022-08-01T09:09:16;3;3;
63662;PMS5003;49815;51.618;0.336;2022-08-01T09:11:40;3;3;
63662;PMS5003;49815;51.618;0.336;2022-08-01T09:14:07;3;3;
63662;PMS5003;49815;51.618;0.336;2022-08-01T09:16:31;3;3;
63662;PMS5003;49815;51.618;0.336;2022-08-01T09:21:21;4;4;
63662;PMS5003;49815;51.618;0.336;2022-08-01T09:23:47;3;3;
63662;PMS5003;49815;51.618;0.336;2022-08-01T09:26:11;4;4;
63662;PMS5003;49815;51.618;0.336;2022-08-01T09:28:36;4;3;
63662;PMS5003;49815;51.618;0.336;2022-08-01T09:31:05;5;4;
63662;PMS5003;49815;51.618;0.336;2022-08-01T09:33:26;3;3;
63662;PMS5003;49815;51.618;0.336;2022-08-01T09:35:54;6;3;
63662;PMS5003;49815;51.618;0.336;2022-08-01T09:38:17;4;4;
63662;PMS5003;49815;51.618;0.336;2022-08-01T09:40:46;5;4;
63662;PMS5003;49815;51.618;0.336;2022-08-01T09:43:10;2;2;
63662;PMS5003;49815;51.618;0.336;2022-08-01T09:45:32;4;4;
63662;PMS5003;49815;51.618;0.336;2022-08-01T09:47:56;3;3;
63662;PMS5003;49815;51.618;0.336;2022-08-01T09:50:21;4;4;
63662;PMS5003;49815;51.618;0.336;2022-08-01T09:55:11;5;5;
63662;PMS5003;49815;51.618;0.336;2022-08-01T09:57:37;5;5;
63662;PMS5003;49815;51.618;0.336;2022-08-01T10:00:02;4;1;
63662;PMS5003;49815;51.618;0.336;2022-08-01T10:02:28;3;3;
63662;PMS5003;49815;51.618;0.336;2022-08-01T10:04:52;4;3;
63662;PMS5003;49815;51.618;0.336;2022-08-01T10:07:17;3;3;
63662;PMS5003;49815;51.618;0.336;2022-08-01T10:09:42;3;3;
63662;PMS5003;49815;51.618;0.336;2022-08-01T10:12:07;3;3;
63662;PMS5003;49815;51.618;0.336;2022-08-01T10:14:32;4;4;
63662;PMS5003;49815;51.618;0.336;2022-08-01T10:16:57;4;2;
63662;PMS5003;49815;51.618;0.336;2022-08-01T10:19:22;3;3;
63662;PMS5003;49815;51.618;0.336;2022-08-01T10:21:48;4;4;
63662;PMS5003;49815;51.618;0.336;2022-08-01T10:24:13;4;4;
63662;PMS5003;49815;51.618;0.336;2022-08-01T10:26:38;5;3;
63662;PMS5003;49815;51.618;0.336;2022-08-01T10:29:03;5;5;
63662;PMS5003;49815;51.618;0.336;2022-08-01T10:31:28;3;3;
63662;PMS5003;49815;51.618;0.336;2022-08-01T10:33:53;4;4;
63662;PMS5003;49815;51.618;0.336;2022-08-01T10:36:19;4;4;
63662;PMS5003;49815;51.618;0.336;2022-08-01T10:38:43;4;4;
63662;PMS5003;49815;51.618;0.336;2022-08-01T10:41:08;4;4;
63662;PMS5003;49815;51.618;0.336;2022-08-01T10:43:33;6;6;
63662;PMS5003;49815;51.618;0.336;2022-08-01T10:45:58;4;4;
63662;PMS5003;49815;51.618;0.336;2022-08-01T10:48:34;5;5;
63662;PMS5003;49815;51.618;0.336;2022-08-01T10:50:48;5;5;
63662;PMS5003;49815;51.618;0.336;2022-08-01T10:53:15;4;4;
63662;PMS5003;49815;51.618;0.336;2022-08-01T10:55:47;3;3;
63662;PMS5003;49815;51.618;0.336;2022-08-01T10:58:03;5;3;
63662;PMS5003;49815;51.618;0.336;2022-08-01T11:00:28;3;3;
63662;PMS5003;49815;51.618;0.336;2022-08-01T11:02:57;6;6;
63662;PMS5003;49815;51.618;0.336;2022-08-01T11:05:19;4;4;
63662;PMS5003;49815;51.618;0.336;2022-08-01T11:07:46;4;4;
63662;PMS5003;49815;51.618;0.336;2022-08-01T11:10:10;5;3;
63662;PMS5003;49815;51.618;0.336;2022-08-01T11:12:37;4;4;
63662;PMS5003;49815;51.618;0.336;2022-08-01T11:17:30;2;2;
63662;PMS5003;49815;51.618;0.336;2022-08-01T11:22:15;4;4;
63662;PMS5003;49815;51.618;0.336;2022-08-01T11:29:31;4;4;
63662;PMS5003;49815;51.618;0.336;2022-08-01T11:31:56;2;2;
63662;PMS5003;49815;51.618;0.336;2022-08-01T11:34:24;5;5;
63662;PMS5003;49815;51.618;0.336;2022-08-01T11:36:46;4;4;
63662;PMS5003;49815;51.618;0.336;2022-08-01T11:39:12;3;3;
63662;PMS5003;49815;51.618;0.336;2022-08-01T11:41:36;3;3;
63662;PMS5003;49815;51.618;0.336;2022-08-01T11:44:02;4;4;
63662;PMS5003;49815;51.618;0.336;2022-08-01T11:51:16;3;3;
63662;PMS5003;49815;51.618;0.336;2022-08-01T11:53:45;3;3;
63662;PMS5003;49815;51.618;0.336;2022-08-01T11:56:06;3;3;
63662;PMS5003;49815;51.618;0.336;2022-08-01T11:58:31;3;3;
63662;PMS5003;49815;51.618;0.336;2022-08-01T12:00:57;3;3;
63662;PMS5003;49815;51.618;0.336;2022-08-01T12:03:23;1;1;
63662;PMS5003;49815;51.618;0.336;2022-08-01T12:05:46;5;5;
63662;PMS5003;49815;51.618;0.336;2022-08-01T12:08:11;5;4;
63662;PMS5003;49815;51.618;0.336;2022-08-01T12:10:36;4;4;
63662;PMS5003;49815;51.618;0.336;2022-08-01T12:13:02;3;3;
63662;PMS5003;49815;51.618;0.336;2022-08-01T12:15:29;4;4;
63662;PMS5003;49815;51.618;0.336;2022-08-01T12:17:55;4;4;
63662;PMS5003;49815;51.618;0.336;2022-08-01T12:20:19;4;4;
63662;PMS5003;49815;51.618;0.336;2022-08-01T12:22:41;4;4;
63662;PMS5003;49815;51.618;0.336;2022-08-01T12:25:08;2;2;
63662;PMS5003;49815;51.618;0.336;2022-08-01T12:27:33;3;3;
63662;PMS5003;49815;51.618;0.336;2022-08-01T12:29:58;3;3;
63662;PMS5003;49815;51.618;0.336;2022-08-01T12:32:25;5;3;
63662;PMS5003;49815;51.618;0.336;2022-08-01T12:34:49;3;3;
63662;PMS5003;49815;51.618;0.336;2022-08-01T12:37:15;3;3;
63662;PMS5003;49815;51.618;0.336;2022-08-01T12:39:41;4;4;
63662;PMS5003;49815;51.618;0.336;2022-08-01T12:42:06;4;3;
63662;PMS5003;49815;51.618;0.336;2022-08-01T12:44:31;3;3;
63662;PMS5003;49815;51.618;0.336;2022-08-01T12:46:56;3;3;
63662;PMS5003;49815;51.618;0.336;2022-08-01T12:49:21;4;4;
63662;PMS5003;49815;51.618;0.336;2022-08-01T12:51:46;4;4;
63662;PMS5003;49815;51.618;0.336;2022-08-01T12:54:11;5;4;
63662;PMS5003;49815;51.618;0.336;2022-08-01T12:56:36;3;3;
63662;PMS5003;49815;51.618;0.336;2022-08-01T12:59:01;3;3;
63662;PMS5003;49815;51.618;0.336;2022-08-01T13:01:26;4;4;
63662;PMS5003;49815;51.618;0.336;2022-08-01T13:06:16;3;3;
63662;PMS5003;49815;51.618;0.336;2022-08-01T13:08:41;3;3;
63662;PMS5003;49815;51.618;0.336;2022-08-01T13:11:07;3;3;
63662;PMS5003;49815;51.618;0.336;2022-08-01T13:18:22;4;4;
63662;PMS5003;49815;51.618;0.336;2022-08-01T13:20:46;3;3;
63662;PMS5003;49815;51.618;0.336;2022-08-01T13:23:12;3;3;
63662;PMS5003;49815;51.618;0.336;2022-08-01T13:30:26;4;4;
63662;PMS5003;49815;51.618;0.336;2022-08-01T13:32:57;3;3;
63662;PMS5003;49815;51.618;0.336;2022-08-01T13:35:20;6;4;
63662;PMS5003;49815;51.618;0.336;2022-08-01T13:37:41;3;3;
63662;PMS5003;49815;51.618;0.336;2022-08-01T13:40:07;5;4;
63662;PMS5003;49815;51.618;0.336;2022-08-01T13:42:31;4;4;
63662;PMS5003;49815;51.618;0.336;2022-08-01T13:44:56;5;5;
63662;PMS5003;49815;51.618;0.336;2022-08-01T13:47:22;4;4;
63662;PMS5003;49815;51.618;0.336;2022-08-01T13:49:47;4;4;
63662;PMS5003;49815;51.618;0.336;2022-08-01T13:52:11;4;4;
63662;PMS5003;49815;51.618;0.336;2022-08-01T13:54:36;5;5;
63662;PMS5003;49815;51.618;0.336;2022-08-01T13:57:02;3;3;
63662;PMS5003;49815;51.618;0.336;2022-08-01T13:59:26;4;4;
63662;PMS5003;49815;51.618;0.336;2022-08-01T14:01:53;5;5;
63662;PMS5003;49815;51.618;0.336;2022-08-01T14:04:18;4;4;
63662;PMS5003;49815;51.618;0.336;2022-08-01T14:06:42;3;3;
63662;PMS5003;49815;51.618;0.336;2022-08-01T14:09:07;4;4;
63662;PMS5003;49815;51.618;0.336;2022-08-01T14:11:34;3;3;
63662;PMS5003;49815;51.618;0.336;2022-08-01T14:13:57;6;5;
63662;PMS5003;49815;51.618;0.336;2022-08-01T14:16:22;4;4;
63662;PMS5003;49815;51.618;0.336;2022-08-01T14:18:48;4;4;
63662;PMS5003;49815;51.618;0.336;2022-08-01T14:21:12;4;4;
63662;PMS5003;49815;51.618;0.336;2022-08-01T14:23:37;7;6;
63662;PMS5003;49815;51.618;0.336;2022-08-01T14:26:03;3;3;
63662;PMS5003;49815;51.618;0.336;2022-08-01T14:28:28;11;11;
63662;PMS5003;49815;51.618;0.336;2022-08-01T14:30:53;6;6;
63662;PMS5003;49815;51.618;0.336;2022-08-01T14:33:19;6;4;
63662;PMS5003;49815;51.618;0.336;2022-08-01T14:35:43;3;3;
63662;PMS5003;49815;51.618;0.336;2022-08-01T14:38:08;6;5;
63662;PMS5003;49815;51.618;0.336;2022-08-01T14:40:33;3;3;
63662;PMS5003;49815;51.618;0.336;2022-08-01T14:42:58;4;4;
63662;PMS5003;49815;51.618;0.336;2022-08-01T14:45:23;4;4;
63662;PMS5003;49815;51.618;0.336;2022-08-01T14:47:49;6;6;
63662;PMS5003;49815;51.618;0.336;2022-08-01T14:50:14;13;12;
63662;PMS5003;49815;51.618;0.336;2022-08-01T14:52:39;7;6;
63662;PMS5003;49815;51.618;0.336;2022-08-01T14:55:05;5;4;
63662;PMS5003;49815;51.618;0.336;2022-08-01T14:57:29;4;3;
63662;PMS5003;49815;51.618;0.336;2022-08-01T14:59:53;3;3;
63662;PMS5003;49815;51.618;0.336;2022-08-01T15:02:19;5;5;
63662;PMS5003;49815;51.618;0.336;2022-08-01T15:04:44;4;4;
63662;PMS5003;49815;51.618;0.336;2022-08-01T15:07:09;3;3;
63662;PMS5003;49815;51.618;0.336;2022-08-01T15:09:34;6;5;
63662;PMS5003;49815;51.618;0.336;2022-08-01T15:11:59;2;2;
63662;PMS5003;49815;51.618;0.336;2022-08-01T15:14:24;4;3;
63662;PMS5003;49815;51.618;0.336;2022-08-01T15:16:49;2;2;
63662;PMS5003;49815;51.618;0.336;2022-08-01T15:19:14;4;4;
63662;PMS5003;49815;51.618;0.336;2022-08-01T15:21:39;5;4;
63662;PMS5003;49815;51.618;0.336;2022-08-01T15:24:04;3;3;
63662;PMS5003;49815;51.618;0.336;2022-08-01T15:26:29;6;4;
63662;PMS5003;49815;51.618;0.336;2022-08-01T15:28:54;5;4;
63662;PMS5003;49815;51.618;0.336;2022-08-01T15:31:19;5;4;
63662;PMS5003;49815;51.618;0.336;2022-08-01T15:33:44;5;5;
63662;PMS5003;49815;51.618;0.336;2022-08-01T15:36:09;4;4;
63662;PMS5003;49815;51.618;0.336;2022-08-01T15:38:34;6;6;
63662;PMS5003;49815;51.618;0.336;2022-08-01T15:40:59;4;4;
63662;PMS5003;49815;51.618;0.336;2022-08-01T15:43:24;4;4;
63662;PMS5003;49815;51.618;0.336;2022-08-01T15:45:54;6;4;
63662;PMS5003;49815;51.618;0.336;2022-08-01T15:48:14;3;3;
63662;PMS5003;49815;51.618;0.336;2022-08-01T15:50:39;4;4;
63662;PMS5003;49815;51.618;0.336;2022-08-01T15:53:04;4;4;
63662;PMS5003;49815;51.618;0.336;2022-08-01T15:55:29;6;4;
63662;PMS5003;49815;51.618;0.336;2022-08-01T15:57:54;6;4;
63662;PMS5003;49815;51.618;0.336;2022-08-01T16:00:19;6;6;
63662;PMS5003;49815;51.618;0.336;2022-08-01T16:02:44;4;4;
63662;PMS5003;49815;51.618;0.336;2022-08-01T16:05:12;5;3;
63662;PMS5003;49815;51.618;0.336;2022-08-01T16:07:34;3;3;
63662;PMS5003;49815;51.618;0.336;2022-08-01T16:10:00;6;4;
63662;PMS5003;49815;51.618;0.336;2022-08-01T16:12:24;4;4;
63662;PMS5003;49815;51.618;0.336;2022-08-01T16:14:49;4;4;
63662;PMS5003;49815;51.618;0.336;2022-08-01T16:17:14;6;4;
63662;PMS5003;49815;51.618;0.336;2022-08-01T16:19:39;4;4;
63662;PMS5003;49815;51.618;0.336;2022-08-01T16:22:05;5;5;
63662;PMS5003;49815;51.618;0.336;2022-08-01T16:24:30;4;4;
63662;PMS5003;49815;51.618;0.336;2022-08-01T16:26:55;3;3;
63662;PMS5003;49815;51.618;0.336;2022-08-01T16:29:20;5;5;
63662;PMS5003;49815;51.618;0.336;2022-08-01T16:31:45;2;2;
63662;PMS5003;49815;51.618;0.336;2022-08-01T16:34:11;8;5;
63662;PMS5003;49815;51.618;0.336;2022-08-01T16:36:35;4;4;
63662;PMS5003;49815;51.618;0.336;2022-08-01T16:39:00;7;4;
63662;PMS5003;49815;51.618;0.336;2022-08-01T16:41:25;4;4;
63662;PMS5003;49815;51.618;0.336;2022-08-01T16:43:50;7;4;
63662;PMS5003;49815;51.618;0.336;2022-08-01T16:46:15;4;4;
63662;PMS5003;49815;51.618;0.336;2022-08-01T16:48:40;3;3;
63662;PMS5003;49815;51.618;0.336;2022-08-01T16:51:05;3;3;
63662;PMS5003;49815;51.618;0.336;2022-08-01T16:53:30;5;5;
63662;PMS5003;49815;51.618;0.336;2022-08-01T16:55:56;4;4;
63662;PMS5003;49815;51.618;0.336;2022-08-01T16:58:21;5;5;
63662;PMS5003;49815;51.618;0.336;2022-08-01T17:00:46;6;5;
63662;PMS5003;49815;51.618;0.336;2022-08-01T17:03:11;8;5;
63662;PMS5003;49815;51.618;0.336;2022-08-01T17:05:36;4;4;
63662;PMS5003;49815;51.618;0.336;2022-08-01T17:08:01;6;5;